Minerva Georgia — SXUA — position and weather

sailwx.info

Track history (hours):
 
Tides and Currents Weather Stations Pressure Air Temp Water Temp Dewpoint Dewpoint Depression Visibility Wind Speed Wind Dir Waves Ship Positions

Minerva Georgia

Last reported at 2018-Apr-22 21:33 UTC. Time now 2018-Apr-25 00:50 UTC.
Position N 01°18' E 103°20'.

Length 274 m; draft 16.6 m.

Type: Ship. MMSI: 240715000.

Date/timePositionNaut miles runAvg speedWind from/ knotsBaromVisibWave heightAir tempDewpointWater temp
2018-Apr-22 21:33N 01°18' E 103°20'116.7
2018-Apr-22 21:29N 01°17' E 103°21'815.8
2018-Apr-22 20:58N 01°14' E 103°28'613.2
2018-Apr-22 20:30N 01°11' E 103°34'3 6.6
2018-Apr-22 19:59N 01°11' E 103°37'3 6.9
2018-Apr-22 19:30N 01°08' E 103°38'2 2.4
2018-Apr-22 18:42N 01°06' E 103°37'0 0.0
2018-Apr-22 16:30N 01°06' E 103°37'0 0.0
2018-Apr-22 12:12N 01°06' E 103°37'0 0.1
2018-Apr-22 11:54N 01°06' E 103°37'0 0.1
2018-Apr-22 10:48N 01°06' E 103°37'0 0.2
2018-Apr-22 10:30N 01°06' E 103°37'0 0.1
2018-Apr-22 09:54N 01°06' E 103°37'0 0.0
2018-Apr-22 09:30N 01°06' E 103°37'0 0.0
2018-Apr-21 21:06N 01°06' E 103°37'0 0.2
2018-Apr-21 20:51N 01°06' E 103°37'0 0.0
2018-Apr-21 20:30N 01°06' E 103°37'0 0.0
2018-Apr-21 19:54N 01°06' E 103°37'0 0.1
2018-Apr-21 18:39N 01°06' E 103°37'0 0.0
2018-Apr-21 14:54N 01°06' E 103°37'0 0.0
2018-Apr-21 14:24N 01°06' E 103°37'0 0.0
2018-Apr-21 11:45N 01°06' E 103°37'0 0.1
2018-Apr-21 10:03N 01°06' E 103°37'0 0.1
2018-Apr-21 09:57N 01°06' E 103°37'0 0.1
2018-Apr-21 09:15N 01°06' E 103°37'0 0.0
2018-Apr-20 06:38N 01°06' E 103°37'0 0.0
2018-Apr-20 06:30N 01°06' E 103°37'0 0.1
2018-Apr-20 06:00N 01°06' E 103°37'0 0.2
2018-Apr-20 05:30N 01°06' E 103°37'0 0.3
2018-Apr-20 04:56N 01°06' E 103°37'0 0.6
2018-Apr-20 04:29N 01°06' E 103°37'1 0.5
2018-Apr-20 03:25N 01°06' E 103°37'0 0.1
2018-Apr-20 02:59N 01°06' E 103°37'0 0.4
2018-Apr-20 02:30N 01°06' E 103°37'2 3.8
2018-Apr-20 01:57N 01°08' E 103°37'2 5.1
2018-Apr-20 01:30N 01°10' E 103°38'3 5.1
2018-Apr-20 01:00N 01°10' E 103°40'4 7.4
2018-Apr-20 00:30N 01°08' E 103°44'4 7.2
2018-Apr-19 23:59N 01°10' E 103°47'3 5.4
2018-Apr-19 23:30N 01°11' E 103°49'5 5.0
2018-Apr-19 22:27N 01°14' E 103°54'1 1.5
2018-Apr-19 21:58N 01°15' E 103°54'0 0.0
2018-Apr-19 21:28N 01°15' E 103°54'0 0.0
2018-Apr-19 19:49N 01°15' E 103°54'0 0.2
2018-Apr-19 19:25N 01°14' E 103°54'0 0.1
2018-Apr-19 15:46N 01°14' E 103°54'0 0.0
2018-Apr-19 15:28N 01°14' E 103°54'0 0.0
2018-Apr-19 14:52N 01°14' E 103°54'0 0.0
2018-Apr-19 14:16N 01°14' E 103°54'0 0.0
2018-Apr-19 13:43N 01°14' E 103°54'0 0.0
2018-Apr-19 13:28N 01°14' E 103°54'0 0.0
2018-Apr-19 12:58N 01°14' E 103°54'0 0.0
2018-Apr-19 12:16N 01°14' E 103°54'0 0.0
2018-Apr-19 11:58N 01°14' E 103°54'0 0.0
2018-Apr-19 11:28N 01°14' E 103°54'0 0.0
2018-Apr-19 10:58N 01°14' E 103°54'0 0.0
2018-Apr-19 10:28N 01°14' E 103°54'0 0.0
2018-Apr-19 09:55N 01°14' E 103°54'0 0.0
2018-Apr-19 09:28N 01°14' E 103°54'0 0.0
2018-Apr-19 08:52N 01°14' E 103°54'0 0.1
2018-Apr-19 08:16N 01°14' E 103°54'0 0.2
2018-Apr-19 07:55N 01°14' E 103°54'0 0.0
2018-Apr-19 07:16N 01°14' E 103°54'0 0.0
2018-Apr-19 06:58N 01°14' E 103°54'0 0.0
2018-Apr-19 06:19N 01°14' E 103°54'0 0.0
2018-Apr-19 05:46N 01°14' E 103°54'0 0.0
2018-Apr-19 05:25N 01°14' E 103°54'0 0.0
2018-Apr-19 04:58N 01°14' E 103°54'0 0.0
2018-Apr-19 04:28N 01°14' E 103°54'0 0.0
2018-Apr-19 03:58N 01°14' E 103°54'0 0.1
2018-Apr-19 02:04N 01°15' E 103°54'0 0.0
2018-Apr-19 01:52N 01°15' E 103°54'0 0.1
2018-Apr-19 01:25N 01°15' E 103°54'0 0.0
2018-Apr-19 00:40N 01°15' E 103°54'0 0.1
2018-Apr-18 23:37N 01°15' E 103°54'0 0.0
2018-Apr-18 23:19N 01°15' E 103°54'0 0.0
2018-Apr-18 22:58N 01°15' E 103°54'0 0.0
2018-Apr-18 22:28N 01°15' E 103°54'0 0.0
2018-Apr-18 21:58N 01°15' E 103°54'0 0.1
2018-Apr-18 21:19N 01°15' E 103°54'0 0.1
2018-Apr-18 20:46N 01°15' E 103°54'0 0.1
2018-Apr-18 20:28N 01°15' E 103°54'0 0.0
2018-Apr-18 19:55N 01°15' E 103°54'0 0.0
2018-Apr-18 19:28N 01°15' E 103°54'0 0.0
2018-Apr-18 18:58N 01°15' E 103°54'0 0.2
2018-Apr-18 18:28N 01°14' E 103°54'0 0.4
2018-Apr-18 17:58N 01°14' E 103°54'0 0.1
2018-Apr-18 17:25N 01°14' E 103°54'0 0.0
2018-Apr-18 16:58N 01°14' E 103°54'0 0.1
2018-Apr-18 16:28N 01°14' E 103°54'0 0.0
2018-Apr-18 15:58N 01°14' E 103°54'0 0.0
2018-Apr-18 15:28N 01°14' E 103°54'0 0.0
2018-Apr-18 14:55N 01°14' E 103°54'0 0.0
2018-Apr-18 14:28N 01°14' E 103°54'0 0.0
2018-Apr-18 13:58N 01°14' E 103°54'0 0.0
2018-Apr-18 13:28N 01°14' E 103°54'0 0.0
2018-Apr-18 12:52N 01°14' E 103°54'0 0.0
2018-Apr-18 12:25N 01°14' E 103°54'0 0.0
2018-Apr-18 11:46N 01°14' E 103°54'0 0.0
2018-Apr-18 11:28N 01°14' E 103°54'0 0.0
2018-Apr-18 10:55N 01°14' E 103°54'0 0.0
2018-Apr-18 10:22N 01°14' E 103°54'0 0.0
2018-Apr-18 09:49N 01°14' E 103°54'0 0.0
2018-Apr-18 09:28N 01°14' E 103°54'0 0.0
2018-Apr-18 08:58N 01°14' E 103°54'0 0.0
2018-Apr-18 08:28N 01°14' E 103°54'0 0.0
2018-Apr-18 07:58N 01°14' E 103°54'0 0.0
2018-Apr-18 07:28N 01°14' E 103°54'0 0.0
2018-Apr-18 06:55N 01°14' E 103°54'0 0.0
2018-Apr-18 06:28N 01°14' E 103°54'0 0.0
2018-Apr-18 05:58N 01°14' E 103°54'0 0.0
2018-Apr-18 05:28N 01°14' E 103°54'0 0.0
2018-Apr-18 04:58N 01°14' E 103°54'0 0.0
2018-Apr-18 04:28N 01°14' E 103°54'0 0.1
2018-Apr-18 03:49N 01°14' E 103°54'0 0.2
2018-Apr-18 03:25N 01°14' E 103°54'0 0.1
2018-Apr-18 02:55N 01°14' E 103°54'0 0.1
2018-Apr-18 02:25N 01°14' E 103°54'0 0.0
2018-Apr-18 01:58N 01°14' E 103°54'0 0.2
2018-Apr-18 01:28N 01°14' E 103°54'0 0.4
2018-Apr-18 00:58N 01°14' E 103°54'0 0.2
2018-Apr-18 00:28N 01°15' E 103°54'0 0.0
2018-Apr-17 23:58N 01°15' E 103°54'0 0.0
2018-Apr-17 23:28N 01°15' E 103°54'0 0.0
2018-Apr-17 22:52N 01°15' E 103°54'0 0.0
2018-Apr-17 22:25N 01°15' E 103°54'0 0.0
2018-Apr-17 21:58N 01°15' E 103°54'0 0.0
2018-Apr-17 21:25N 01°15' E 103°54'0 0.1
2018-Apr-17 20:58N 01°15' E 103°54'0 0.0
2018-Apr-17 20:25N 01°15' E 103°54'0 0.0
2018-Apr-17 19:52N 01°15' E 103°54'0 0.0
2018-Apr-17 19:16N 01°15' E 103°54'0 0.0
2018-Apr-17 18:58N 01°14' E 103°54'0 0.3
2018-Apr-17 18:19N 01°14' E 103°54'0 0.1
2018-Apr-17 17:52N 01°14' E 103°54'0 0.2
2018-Apr-17 17:28N 01°14' E 103°54'0 0.0
2018-Apr-17 16:58N 01°14' E 103°54'0 0.1
2018-Apr-17 16:28N 01°14' E 103°54'0 0.0
2018-Apr-17 15:58N 01°14' E 103°54'0 0.0
2018-Apr-17 15:13N 01°14' E 103°54'0 0.1
2018-Apr-17 14:58N 01°14' E 103°54'0 0.0
2018-Apr-17 14:28N 01°14' E 103°54'0 0.0
2018-Apr-17 13:58N 01°14' E 103°54'0 0.0
2018-Apr-17 13:28N 01°14' E 103°54'0 0.0
2018-Apr-17 12:52N 01°14' E 103°54'0 0.0
2018-Apr-17 12:28N 01°14' E 103°54'0 0.0
2018-Apr-17 11:58N 01°14' E 103°54'0 0.0
2018-Apr-17 11:28N 01°14' E 103°54'0 0.0
2018-Apr-17 10:58N 01°14' E 103°54'0 0.0
2018-Apr-17 10:25N 01°14' E 103°54'0 0.0
2018-Apr-17 09:58N 01°14' E 103°54'0 0.0
2018-Apr-17 09:28N 01°14' E 103°54'0 0.1
2018-Apr-17 08:58N 01°14' E 103°54'0 0.0
2018-Apr-17 08:28N 01°14' E 103°54'0 0.1
2018-Apr-17 07:55N 01°14' E 103°54'0 0.0
2018-Apr-17 07:28N 01°14' E 103°54'0 0.0
2018-Apr-17 06:58N 01°14' E 103°54'0 0.0
2018-Apr-17 06:28N 01°14' E 103°54'0 0.0
2018-Apr-17 05:46N 01°14' E 103°54'0 0.1
2018-Apr-17 05:28N 01°14' E 103°54'0 0.0
2018-Apr-17 04:52N 01°14' E 103°54'0 0.0
2018-Apr-17 04:28N 01°14' E 103°54'0 0.0
2018-Apr-17 03:58N 01°14' E 103°54'0 0.0
2018-Apr-17 03:28N 01°14' E 103°54'0 0.0
2018-Apr-17 02:55N 01°14' E 103°54'0 0.0
2018-Apr-17 02:28N 01°14' E 103°54'0 0.0
2018-Apr-17 01:58N 01°14' E 103°54'0 0.0
2018-Apr-17 01:28N 01°14' E 103°54'0 0.1
2018-Apr-17 00:58N 01°14' E 103°54'0 0.2
2018-Apr-17 00:28N 01°14' E 103°54'0 0.3
2018-Apr-16 23:58N 01°14' E 103°54'0 0.2
2018-Apr-16 23:28N 01°15' E 103°54'0 0.0
2018-Apr-16 22:58N 01°15' E 103°54'0 0.0
2018-Apr-16 22:28N 01°15' E 103°54'0 0.0
2018-Apr-16 21:58N 01°15' E 103°54'0 0.0
2018-Apr-16 21:25N 01°15' E 103°54'0 0.1
2018-Apr-16 20:58N 01°15' E 103°54'0 0.0
2018-Apr-16 20:28N 01°15' E 103°54'0 0.0
2018-Apr-16 19:55N 01°15' E 103°54'0 0.0
2018-Apr-16 19:28N 01°15' E 103°54'0 0.0
2018-Apr-16 18:58N 01°15' E 103°54'0 0.0
2018-Apr-16 18:28N 01°14' E 103°54'0 0.3
2018-Apr-16 17:58N 01°14' E 103°54'0 0.2
2018-Apr-16 17:10N 01°14' E 103°54'0 0.0
2018-Apr-16 16:34N 01°14' E 103°54'0 0.0
2018-Apr-16 16:22N 01°14' E 103°54'0 0.0
2018-Apr-16 15:52N 01°14' E 103°54'0 0.1
2018-Apr-16 15:16N 01°14' E 103°54'0 0.0
2018-Apr-16 14:58N 01°14' E 103°54'0 0.0
2018-Apr-16 14:22N 01°14' E 103°54'0 0.0
2018-Apr-16 13:52N 01°14' E 103°54'0 0.0
2018-Apr-16 13:22N 01°14' E 103°54'0 0.0
2018-Apr-16 12:58N 01°14' E 103°54'0 0.0
2018-Apr-16 12:22N 01°14' E 103°54'0 0.1
2018-Apr-16 11:55N 01°14' E 103°54'0 0.0
2018-Apr-16 11:28N 01°14' E 103°54'0 0.0
2018-Apr-16 10:58N 01°14' E 103°54'0 0.2
2018-Apr-16 10:28N 01°14' E 103°54'0 0.2
2018-Apr-16 09:58N 01°14' E 103°54'0 0.2
2018-Apr-16 09:28N 01°14' E 103°54'0 0.0
2018-Apr-16 08:58N 01°14' E 103°54'0 0.0
2018-Apr-16 08:25N 01°14' E 103°54'0 0.1
2018-Apr-16 04:43N 01°14' E 103°54'0 0.0
2018-Apr-16 04:16N 01°14' E 103°54'0 0.0
2018-Apr-16 03:55N 01°14' E 103°54'0 0.0
2018-Apr-16 03:28N 01°14' E 103°54'0 0.0
2018-Apr-16 02:34N 01°14' E 103°54'0 0.0
2018-Apr-16 02:28N 01°14' E 103°54'0 0.0
2018-Apr-16 01:58N 01°14' E 103°54'0 0.0
2018-Apr-16 01:22N 01°14' E 103°54'0 0.0
2018-Apr-16 00:58N 01°14' E 103°54'0 0.1
2018-Apr-16 00:22N 01°14' E 103°54'0 0.1
2018-Apr-15 23:55N 01°14' E 103°54'0 0.3
2018-Apr-15 23:28N 01°14' E 103°54'0 0.3
2018-Apr-15 22:49N 01°14' E 103°54'0 0.1
2018-Apr-15 22:28N 01°14' E 103°54'0 0.0
2018-Apr-15 21:58N 01°14' E 103°54'0 0.0
2018-Apr-15 21:28N 01°14' E 103°54'0 0.0
2018-Apr-15 20:52N 01°15' E 103°54'0 0.0
2018-Apr-15 20:28N 01°15' E 103°54'0 0.0
2018-Apr-15 19:58N 01°14' E 103°54'0 0.0
2018-Apr-15 19:22N 01°15' E 103°54'0 0.1
2018-Apr-15 18:58N 01°14' E 103°54'0 0.3
2018-Apr-15 18:28N 01°14' E 103°54'0 0.2
2018-Apr-15 17:58N 01°14' E 103°54'0 0.1
2018-Apr-15 17:28N 01°14' E 103°54'0 0.1
2018-Apr-15 16:58N 01°14' E 103°54'0 0.0
2018-Apr-15 16:28N 01°14' E 103°54'0 0.0
2018-Apr-15 15:58N 01°14' E 103°54'0 0.0
2018-Apr-15 15:25N 01°14' E 103°54'0 0.0
2018-Apr-15 14:55N 01°14' E 103°54'0 0.0
2018-Apr-15 14:10N 01°14' E 103°54'0 0.0
2018-Apr-15 13:46N 01°14' E 103°54'0 0.0
2018-Apr-15 13:28N 01°14' E 103°54'0 0.0
2018-Apr-15 12:52N 01°14' E 103°54'0 0.0
2018-Apr-15 12:25N 01°14' E 103°54'0 0.0
2018-Apr-15 11:58N 01°14' E 103°54'0 0.0
2018-Apr-15 11:28N 01°14' E 103°54'0 0.1
2018-Apr-15 10:52N 01°14' E 103°54'0 0.3
2018-Apr-15 10:25N 01°15' E 103°54'0 0.3
2018-Apr-15 09:58N 01°15' E 103°54'0 0.0
2018-Apr-15 09:28N 01°15' E 103°54'0 0.0
2018-Apr-15 08:58N 01°15' E 103°54'0 0.1
2018-Apr-15 08:28N 01°15' E 103°54'0 0.0
2018-Apr-15 07:58N 01°14' E 103°54'0 0.0
2018-Apr-15 07:28N 01°14' E 103°54'0 0.0
2018-Apr-15 06:58N 01°14' E 103°54'0 0.2
2018-Apr-15 05:37N 01°14' E 103°54'0 0.3
2018-Apr-15 05:25N 01°14' E 103°54'0 0.0
2018-Apr-15 04:40N 01°14' E 103°54'0 0.1
2018-Apr-15 04:28N 01°14' E 103°54'0 0.0
2018-Apr-15 03:58N 01°14' E 103°54'0 0.0
2018-Apr-15 03:28N 01°14' E 103°54'0 0.1
2018-Apr-15 02:55N 01°14' E 103°54'0 0.0
2018-Apr-15 02:28N 01°14' E 103°54'0 0.0
2018-Apr-15 01:55N 01°14' E 103°54'0 0.0
2018-Apr-15 01:28N 01°14' E 103°54'0 0.0
2018-Apr-15 00:58N 01°14' E 103°54'0 0.0
2018-Apr-15 00:22N 01°14' E 103°54'0 0.0
2018-Apr-14 23:58N 01°14' E 103°54'0 0.0
2018-Apr-14 23:25N 01°14' E 103°54'0 0.1
2018-Apr-14 22:58N 01°14' E 103°54'0 0.0
2018-Apr-14 22:28N 01°14' E 103°54'0 0.2
2018-Apr-14 21:58N 01°14' E 103°54'0 0.2
2018-Apr-14 21:28N 01°14' E 103°54'0 0.1
2018-Apr-14 20:58N 01°14' E 103°54'0 0.0
2018-Apr-14 20:28N 01°14' E 103°54'0 0.0
2018-Apr-14 19:58N 01°14' E 103°54'0 0.0
2018-Apr-14 19:28N 01°14' E 103°54'0 0.0
2018-Apr-14 18:55N 01°14' E 103°54'0 0.0
2018-Apr-14 18:28N 01°14' E 103°54'0 0.1
2018-Apr-14 17:58N 01°14' E 103°54'0 0.1
2018-Apr-14 17:28N 01°14' E 103°54'0 0.2
2018-Apr-14 16:22N 01°14' E 103°54'0 0.0
2018-Apr-14 15:58N 01°14' E 103°54'0 0.0
2018-Apr-14 15:22N 01°14' E 103°54'0 0.1
2018-Apr-14 14:58N 01°14' E 103°54'0 0.1
2018-Apr-14 14:28N 01°14' E 103°54'0 0.0
2018-Apr-14 13:55N 01°14' E 103°54'0 0.1
2018-Apr-14 13:04N 01°14' E 103°54'0 0.6
2018-Apr-14 12:58N 01°14' E 103°54'0 0.1
2018-Apr-14 12:28N 01°14' E 103°54'0 0.3
2018-Apr-14 11:46N 01°15' E 103°54'0 0.2
2018-Apr-14 11:28N 01°15' E 103°54'0 0.0
2018-Apr-14 10:58N 01°14' E 103°54'0 0.0
2018-Apr-14 10:28N 01°14' E 103°54'0 0.0
2018-Apr-14 09:55N 01°14' E 103°54'0 0.0
2018-Apr-14 09:28N 01°15' E 103°54'0 0.0
2018-Apr-14 08:13N 01°15' E 103°54'0 0.0
2018-Apr-14 07:43N 01°15' E 103°54'0 0.0
2018-Apr-14 07:28N 01°15' E 103°54'0 0.0
2018-Apr-14 06:58N 01°15' E 103°54'0 0.0
2018-Apr-14 06:16N 01°15' E 103°54'0 0.0
2018-Apr-14 05:55N 01°15' E 103°54'0 0.0
2018-Apr-14 05:25N 01°15' E 103°54'0 0.0
2018-Apr-14 04:58N 01°15' E 103°54'0 0.3
2018-Apr-14 03:58N 01°14' E 103°54'0 0.1
2018-Apr-14 03:28N 01°14' E 103°54'0 0.0
2018-Apr-14 02:58N 01°14' E 103°54'0 0.0
2018-Apr-14 02:01N 01°14' E 103°54'0 0.0
2018-Apr-14 01:55N 01°14' E 103°54'0 0.1
2018-Apr-14 01:28N 01°14' E 103°54'0 0.1
2018-Apr-14 00:58N 01°14' E 103°54'0 0.0
2018-Apr-14 00:16N 01°14' E 103°54'0 0.2
2018-Apr-13 23:55N 01°14' E 103°54'0 0.0
2018-Apr-13 23:25N 01°14' E 103°54'0 0.0
2018-Apr-13 22:55N 01°14' E 103°54'0 0.0
2018-Apr-13 22:22N 01°14' E 103°54'0 0.0
2018-Apr-13 21:40N 01°14' E 103°54'0 0.1
2018-Apr-13 21:22N 01°14' E 103°54'0 0.0
2018-Apr-13 20:58N 01°14' E 103°54'0 0.0
2018-Apr-13 20:28N 01°14' E 103°54'0 0.0
2018-Apr-13 19:55N 01°14' E 103°54'0 0.0
2018-Apr-13 19:25N 01°14' E 103°54'0 0.0
2018-Apr-13 18:58N 01°14' E 103°54'0 0.0
2018-Apr-13 18:22N 01°14' E 103°54'0 0.0
2018-Apr-13 17:58N 01°14' E 103°54'0 0.0
2018-Apr-13 17:28N 01°14' E 103°54'0 0.0
2018-Apr-13 16:58N 01°14' E 103°54'0 0.1
2018-Apr-13 16:28N 01°14' E 103°54'0 0.0
2018-Apr-13 15:55N 01°14' E 103°54'0 0.0
2018-Apr-13 15:25N 01°14' E 103°54'0 0.1
2018-Apr-13 14:58N 01°14' E 103°54'0 0.0
2018-Apr-13 14:19N 01°14' E 103°54'0 0.0
2018-Apr-13 13:55N 01°14' E 103°54'0 0.0
2018-Apr-13 13:28N 01°14' E 103°54'0 0.0
2018-Apr-13 12:55N 01°14' E 103°54'0 0.0
2018-Apr-13 12:28N 01°14' E 103°54'0 0.2
2018-Apr-13 12:00N 01°14' E 103°54'1 1.3
2018-Apr-13 11:30N 01°14' E 103°54'3 4.2
2018-Apr-13 10:52N 01°15' E 103°57'1 3.8
2018-Apr-13 10:29N 01°14' E 103°57'4 7.2
2018-Apr-13 09:58N 01°12' E 103°53'3 7.3
2018-Apr-13 09:30N 01°11' E 103°50'4 7.8
2018-Apr-13 08:59N 01°09' E 103°47'510.3
2018-Apr-13 08:30N 01°06' E 103°43'611.5
2018-Apr-13 08:01N 01°04' E 103°38'611.5
2018-Apr-13 07:30N 01°06' E 103°33'911.9
2018-Apr-13 06:43N 01°11' E 103°25'  
Track history (hours):
 
Tides and Currents Weather Stations Pressure Air Temp Water Temp Dewpoint Dewpoint Depression Visibility Wind Speed Wind Dir Waves Ship Positions

Minerva Georgia

Last reported at 2018-Apr-22 21:33 UTC. Time now 2018-Apr-25 00:50 UTC.
Position N 01°18' E 103°20'.

Length 274 m; draft 16.6 m.

Type: Ship. MMSI: 240715000.

Date/timePositionNaut miles runAvg speedWind from/ knotsBaromVisibWave heightAir tempDewpointWater temp
2018-Apr-22 21:33N 01°18' E 103°20'116.7
2018-Apr-22 21:29N 01°17' E 103°21'815.8
2018-Apr-22 20:58N 01°14' E 103°28'613.2
2018-Apr-22 20:30N 01°11' E 103°34'3 6.6
2018-Apr-22 19:59N 01°11' E 103°37'3 6.9
2018-Apr-22 19:30N 01°08' E 103°38'2 2.4
2018-Apr-22 18:42N 01°06' E 103°37'0 0.0
2018-Apr-22 16:30N 01°06' E 103°37'0 0.0
2018-Apr-22 12:12N 01°06' E 103°37'0 0.1
2018-Apr-22 11:54N 01°06' E 103°37'0 0.1
2018-Apr-22 10:48N 01°06' E 103°37'0 0.2
2018-Apr-22 10:30N 01°06' E 103°37'0 0.1
2018-Apr-22 09:54N 01°06' E 103°37'0 0.0
2018-Apr-22 09:30N 01°06' E 103°37'0 0.0
2018-Apr-21 21:06N 01°06' E 103°37'0 0.2
2018-Apr-21 20:51N 01°06' E 103°37'0 0.0
2018-Apr-21 20:30N 01°06' E 103°37'0 0.0
2018-Apr-21 19:54N 01°06' E 103°37'0 0.1
2018-Apr-21 18:39N 01°06' E 103°37'0 0.0
2018-Apr-21 14:54N 01°06' E 103°37'0 0.0
2018-Apr-21 14:24N 01°06' E 103°37'0 0.0
2018-Apr-21 11:45N 01°06' E 103°37'0 0.1
2018-Apr-21 10:03N 01°06' E 103°37'0 0.1
2018-Apr-21 09:57N 01°06' E 103°37'0 0.1
2018-Apr-21 09:15N 01°06' E 103°37'0 0.0
2018-Apr-20 06:38N 01°06' E 103°37'0 0.0
2018-Apr-20 06:30N 01°06' E 103°37'0 0.1
2018-Apr-20 06:00N 01°06' E 103°37'0 0.2
2018-Apr-20 05:30N 01°06' E 103°37'0 0.3
2018-Apr-20 04:56N 01°06' E 103°37'0 0.6
2018-Apr-20 04:29N 01°06' E 103°37'1 0.5
2018-Apr-20 03:25N 01°06' E 103°37'0 0.1
2018-Apr-20 02:59N 01°06' E 103°37'0 0.4
2018-Apr-20 02:30N 01°06' E 103°37'2 3.8
2018-Apr-20 01:57N 01°08' E 103°37'2 5.1
2018-Apr-20 01:30N 01°10' E 103°38'3 5.1
2018-Apr-20 01:00N 01°10' E 103°40'4 7.4
2018-Apr-20 00:30N 01°08' E 103°44'4 7.2
2018-Apr-19 23:59N 01°10' E 103°47'3 5.4
2018-Apr-19 23:30N 01°11' E 103°49'5 5.0
2018-Apr-19 22:27N 01°14' E 103°54'1 1.5
2018-Apr-19 21:58N 01°15' E 103°54'0 0.0
2018-Apr-19 21:28N 01°15' E 103°54'0 0.0
2018-Apr-19 19:49N 01°15' E 103°54'0 0.2
2018-Apr-19 19:25N 01°14' E 103°54'0 0.1
2018-Apr-19 15:46N 01°14' E 103°54'0 0.0
2018-Apr-19 15:28N 01°14' E 103°54'0 0.0
2018-Apr-19 14:52N 01°14' E 103°54'0 0.0
2018-Apr-19 14:16N 01°14' E 103°54'0 0.0
2018-Apr-19 13:43N 01°14' E 103°54'0 0.0
2018-Apr-19 13:28N 01°14' E 103°54'0 0.0
2018-Apr-19 12:58N 01°14' E 103°54'0 0.0
2018-Apr-19 12:16N 01°14' E 103°54'0 0.0
2018-Apr-19 11:58N 01°14' E 103°54'0 0.0
2018-Apr-19 11:28N 01°14' E 103°54'0 0.0
2018-Apr-19 10:58N 01°14' E 103°54'0 0.0
2018-Apr-19 10:28N 01°14' E 103°54'0 0.0
2018-Apr-19 09:55N 01°14' E 103°54'0 0.0
2018-Apr-19 09:28N 01°14' E 103°54'0 0.0
2018-Apr-19 08:52N 01°14' E 103°54'0 0.1
2018-Apr-19 08:16N 01°14' E 103°54'0 0.2
2018-Apr-19 07:55N 01°14' E 103°54'0 0.0
2018-Apr-19 07:16N 01°14' E 103°54'0 0.0
2018-Apr-19 06:58N 01°14' E 103°54'0 0.0
2018-Apr-19 06:19N 01°14' E 103°54'0 0.0
2018-Apr-19 05:46N 01°14' E 103°54'0 0.0
2018-Apr-19 05:25N 01°14' E 103°54'0 0.0
2018-Apr-19 04:58N 01°14' E 103°54'0 0.0
2018-Apr-19 04:28N 01°14' E 103°54'0 0.0
2018-Apr-19 03:58N 01°14' E 103°54'0 0.1
2018-Apr-19 02:04N 01°15' E 103°54'0 0.0
2018-Apr-19 01:52N 01°15' E 103°54'0 0.1
2018-Apr-19 01:25N 01°15' E 103°54'0 0.0
2018-Apr-19 00:40N 01°15' E 103°54'0 0.1
2018-Apr-18 23:37N 01°15' E 103°54'0 0.0
2018-Apr-18 23:19N 01°15' E 103°54'0 0.0
2018-Apr-18 22:58N 01°15' E 103°54'0 0.0
2018-Apr-18 22:28N 01°15' E 103°54'0 0.0
2018-Apr-18 21:58N 01°15' E 103°54'0 0.1
2018-Apr-18 21:19N 01°15' E 103°54'0 0.1
2018-Apr-18 20:46N 01°15' E 103°54'0 0.1
2018-Apr-18 20:28N 01°15' E 103°54'0 0.0
2018-Apr-18 19:55N 01°15' E 103°54'0 0.0
2018-Apr-18 19:28N 01°15' E 103°54'0 0.0
2018-Apr-18 18:58N 01°15' E 103°54'0 0.2
2018-Apr-18 18:28N 01°14' E 103°54'0 0.4
2018-Apr-18 17:58N 01°14' E 103°54'0 0.1
2018-Apr-18 17:25N 01°14' E 103°54'0 0.0
2018-Apr-18 16:58N 01°14' E 103°54'0 0.1
2018-Apr-18 16:28N 01°14' E 103°54'0 0.0
2018-Apr-18 15:58N 01°14' E 103°54'0 0.0
2018-Apr-18 15:28N 01°14' E 103°54'0 0.0
2018-Apr-18 14:55N 01°14' E 103°54'0 0.0
2018-Apr-18 14:28N 01°14' E 103°54'0 0.0
2018-Apr-18 13:58N 01°14' E 103°54'0 0.0
2018-Apr-18 13:28N 01°14' E 103°54'0 0.0
2018-Apr-18 12:52N 01°14' E 103°54'0 0.0
2018-Apr-18 12:25N 01°14' E 103°54'0 0.0
2018-Apr-18 11:46N 01°14' E 103°54'0 0.0
2018-Apr-18 11:28N 01°14' E 103°54'0 0.0
2018-Apr-18 10:55N 01°14' E 103°54'0 0.0
2018-Apr-18 10:22N 01°14' E 103°54'0 0.0
2018-Apr-18 09:49N 01°14' E 103°54'0 0.0
2018-Apr-18 09:28N 01°14' E 103°54'0 0.0
2018-Apr-18 08:58N 01°14' E 103°54'0 0.0
2018-Apr-18 08:28N 01°14' E 103°54'0 0.0
2018-Apr-18 07:58N 01°14' E 103°54'0 0.0
2018-Apr-18 07:28N 01°14' E 103°54'0 0.0
2018-Apr-18 06:55N 01°14' E 103°54'0 0.0
2018-Apr-18 06:28N 01°14' E 103°54'0 0.0
2018-Apr-18 05:58N 01°14' E 103°54'0 0.0
2018-Apr-18 05:28N 01°14' E 103°54'0 0.0
2018-Apr-18 04:58N 01°14' E 103°54'0 0.0
2018-Apr-18 04:28N 01°14' E 103°54'0 0.1
2018-Apr-18 03:49N 01°14' E 103°54'0 0.2
2018-Apr-18 03:25N 01°14' E 103°54'0 0.1
2018-Apr-18 02:55N 01°14' E 103°54'0 0.1
2018-Apr-18 02:25N 01°14' E 103°54'0 0.0
2018-Apr-18 01:58N 01°14' E 103°54'0 0.2
2018-Apr-18 01:28N 01°14' E 103°54'0 0.4
2018-Apr-18 00:58N 01°14' E 103°54'0 0.2
2018-Apr-18 00:28N 01°15' E 103°54'0 0.0
2018-Apr-17 23:58N 01°15' E 103°54'0 0.0
2018-Apr-17 23:28N 01°15' E 103°54'0 0.0
2018-Apr-17 22:52N 01°15' E 103°54'0 0.0
2018-Apr-17 22:25N 01°15' E 103°54'0 0.0
2018-Apr-17 21:58N 01°15' E 103°54'0 0.0
2018-Apr-17 21:25N 01°15' E 103°54'0 0.1
2018-Apr-17 20:58N 01°15' E 103°54'0 0.0
2018-Apr-17 20:25N 01°15' E 103°54'0 0.0
2018-Apr-17 19:52N 01°15' E 103°54'0 0.0
2018-Apr-17 19:16N 01°15' E 103°54'0 0.0
2018-Apr-17 18:58N 01°14' E 103°54'0 0.3
2018-Apr-17 18:19N 01°14' E 103°54'0 0.1
2018-Apr-17 17:52N 01°14' E 103°54'0 0.2
2018-Apr-17 17:28N 01°14' E 103°54'0 0.0
2018-Apr-17 16:58N 01°14' E 103°54'0 0.1
2018-Apr-17 16:28N 01°14' E 103°54'0 0.0
2018-Apr-17 15:58N 01°14' E 103°54'0 0.0
2018-Apr-17 15:13N 01°14' E 103°54'0 0.1
2018-Apr-17 14:58N 01°14' E 103°54'0 0.0
2018-Apr-17 14:28N 01°14' E 103°54'0 0.0
2018-Apr-17 13:58N 01°14' E 103°54'0 0.0
2018-Apr-17 13:28N 01°14' E 103°54'0 0.0
2018-Apr-17 12:52N 01°14' E 103°54'0 0.0
2018-Apr-17 12:28N 01°14' E 103°54'0 0.0
2018-Apr-17 11:58N 01°14' E 103°54'0 0.0
2018-Apr-17 11:28N 01°14' E 103°54'0 0.0
2018-Apr-17 10:58N 01°14' E 103°54'0 0.0
2018-Apr-17 10:25N 01°14' E 103°54'0 0.0
2018-Apr-17 09:58N 01°14' E 103°54'0 0.0
2018-Apr-17 09:28N 01°14' E 103°54'0 0.1
2018-Apr-17 08:58N 01°14' E 103°54'0 0.0
2018-Apr-17 08:28N 01°14' E 103°54'0 0.1
2018-Apr-17 07:55N 01°14' E 103°54'0 0.0
2018-Apr-17 07:28N 01°14' E 103°54'0 0.0
2018-Apr-17 06:58N 01°14' E 103°54'0 0.0
2018-Apr-17 06:28N 01°14' E 103°54'0 0.0
2018-Apr-17 05:46N 01°14' E 103°54'0 0.1
2018-Apr-17 05:28N 01°14' E 103°54'0 0.0
2018-Apr-17 04:52N 01°14' E 103°54'0 0.0
2018-Apr-17 04:28N 01°14' E 103°54'0 0.0
2018-Apr-17 03:58N 01°14' E 103°54'0 0.0
2018-Apr-17 03:28N 01°14' E 103°54'0 0.0
2018-Apr-17 02:55N 01°14' E 103°54'0 0.0
2018-Apr-17 02:28N 01°14' E 103°54'0 0.0
2018-Apr-17 01:58N 01°14' E 103°54'0 0.0
2018-Apr-17 01:28N 01°14' E 103°54'0 0.1
2018-Apr-17 00:58N 01°14' E 103°54'0 0.2
2018-Apr-17 00:28N 01°14' E 103°54'0 0.3
2018-Apr-16 23:58N 01°14' E 103°54'0 0.2
2018-Apr-16 23:28N 01°15' E 103°54'0 0.0
2018-Apr-16 22:58N 01°15' E 103°54'0 0.0
2018-Apr-16 22:28N 01°15' E 103°54'0 0.0
2018-Apr-16 21:58N 01°15' E 103°54'0 0.0
2018-Apr-16 21:25N 01°15' E 103°54'0 0.1
2018-Apr-16 20:58N 01°15' E 103°54'0 0.0
2018-Apr-16 20:28N 01°15' E 103°54'0 0.0
2018-Apr-16 19:55N 01°15' E 103°54'0 0.0
2018-Apr-16 19:28N 01°15' E 103°54'0 0.0
2018-Apr-16 18:58N 01°15' E 103°54'0 0.0
2018-Apr-16 18:28N 01°14' E 103°54'0 0.3
2018-Apr-16 17:58N 01°14' E 103°54'0 0.2
2018-Apr-16 17:10N 01°14' E 103°54'0 0.0
2018-Apr-16 16:34N 01°14' E 103°54'0 0.0
2018-Apr-16 16:22N 01°14' E 103°54'0 0.0
2018-Apr-16 15:52N 01°14' E 103°54'0 0.1
2018-Apr-16 15:16N 01°14' E 103°54'0 0.0
2018-Apr-16 14:58N 01°14' E 103°54'0 0.0
2018-Apr-16 14:22N 01°14' E 103°54'0 0.0
2018-Apr-16 13:52N 01°14' E 103°54'0 0.0
2018-Apr-16 13:22N 01°14' E 103°54'0 0.0
2018-Apr-16 12:58N 01°14' E 103°54'0 0.0
2018-Apr-16 12:22N 01°14' E 103°54'0 0.1
2018-Apr-16 11:55N 01°14' E 103°54'0 0.0
2018-Apr-16 11:28N 01°14' E 103°54'0 0.0
2018-Apr-16 10:58N 01°14' E 103°54'0 0.2
2018-Apr-16 10:28N 01°14' E 103°54'0 0.2
2018-Apr-16 09:58N 01°14' E 103°54'0 0.2
2018-Apr-16 09:28N 01°14' E 103°54'0 0.0
2018-Apr-16 08:58N 01°14' E 103°54'0 0.0
2018-Apr-16 08:25N 01°14' E 103°54'0 0.1
2018-Apr-16 04:43N 01°14' E 103°54'0 0.0
2018-Apr-16 04:16N 01°14' E 103°54'0 0.0
2018-Apr-16 03:55N 01°14' E 103°54'0 0.0
2018-Apr-16 03:28N 01°14' E 103°54'0 0.0
2018-Apr-16 02:34N 01°14' E 103°54'0 0.0
2018-Apr-16 02:28N 01°14' E 103°54'0 0.0
2018-Apr-16 01:58N 01°14' E 103°54'0 0.0
2018-Apr-16 01:22N 01°14' E 103°54'0 0.0
2018-Apr-16 00:58N 01°14' E 103°54'0 0.1
2018-Apr-16 00:22N 01°14' E 103°54'0 0.1
2018-Apr-15 23:55N 01°14' E 103°54'0 0.3
2018-Apr-15 23:28N 01°14' E 103°54'0 0.3
2018-Apr-15 22:49N 01°14' E 103°54'0 0.1
2018-Apr-15 22:28N 01°14' E 103°54'0 0.0
2018-Apr-15 21:58N 01°14' E 103°54'0 0.0
2018-Apr-15 21:28N 01°14' E 103°54'0 0.0
2018-Apr-15 20:52N 01°15' E 103°54'0 0.0
2018-Apr-15 20:28N 01°15' E 103°54'0 0.0
2018-Apr-15 19:58N 01°14' E 103°54'0 0.0
2018-Apr-15 19:22N 01°15' E 103°54'0 0.1
2018-Apr-15 18:58N 01°14' E 103°54'0 0.3
2018-Apr-15 18:28N 01°14' E 103°54'0 0.2
2018-Apr-15 17:58N 01°14' E 103°54'0 0.1
2018-Apr-15 17:28N 01°14' E 103°54'0 0.1
2018-Apr-15 16:58N 01°14' E 103°54'0 0.0
2018-Apr-15 16:28N 01°14' E 103°54'0 0.0
2018-Apr-15 15:58N 01°14' E 103°54'0 0.0
2018-Apr-15 15:25N 01°14' E 103°54'0 0.0
2018-Apr-15 14:55N 01°14' E 103°54'0 0.0
2018-Apr-15 14:10N 01°14' E 103°54'0 0.0
2018-Apr-15 13:46N 01°14' E 103°54'0 0.0
2018-Apr-15 13:28N 01°14' E 103°54'0 0.0
2018-Apr-15 12:52N 01°14' E 103°54'0 0.0
2018-Apr-15 12:25N 01°14' E 103°54'0 0.0
2018-Apr-15 11:58N 01°14' E 103°54'0 0.0
2018-Apr-15 11:28N 01°14' E 103°54'0 0.1
2018-Apr-15 10:52N 01°14' E 103°54'0 0.3
2018-Apr-15 10:25N 01°15' E 103°54'0 0.3
2018-Apr-15 09:58N 01°15' E 103°54'0 0.0
2018-Apr-15 09:28N 01°15' E 103°54'0 0.0
2018-Apr-15 08:58N 01°15' E 103°54'0 0.1
2018-Apr-15 08:28N 01°15' E 103°54'0 0.0
2018-Apr-15 07:58N 01°14' E 103°54'0 0.0
2018-Apr-15 07:28N 01°14' E 103°54'0 0.0
2018-Apr-15 06:58N 01°14' E 103°54'0 0.2
2018-Apr-15 05:37N 01°14' E 103°54'0 0.3
2018-Apr-15 05:25N 01°14' E 103°54'0 0.0
2018-Apr-15 04:40N 01°14' E 103°54'0 0.1
2018-Apr-15 04:28N 01°14' E 103°54'0 0.0
2018-Apr-15 03:58N 01°14' E 103°54'0 0.0
2018-Apr-15 03:28N 01°14' E 103°54'0 0.1
2018-Apr-15 02:55N 01°14' E 103°54'0 0.0
2018-Apr-15 02:28N 01°14' E 103°54'0 0.0
2018-Apr-15 01:55N 01°14' E 103°54'0 0.0
2018-Apr-15 01:28N 01°14' E 103°54'0 0.0
2018-Apr-15 00:58N 01°14' E 103°54'0 0.0
2018-Apr-15 00:22N 01°14' E 103°54'0 0.0
2018-Apr-14 23:58N 01°14' E 103°54'0 0.0
2018-Apr-14 23:25N 01°14' E 103°54'0 0.1
2018-Apr-14 22:58N 01°14' E 103°54'0 0.0
2018-Apr-14 22:28N 01°14' E 103°54'0 0.2
2018-Apr-14 21:58N 01°14' E 103°54'0 0.2
2018-Apr-14 21:28N 01°14' E 103°54'0 0.1
2018-Apr-14 20:58N 01°14' E 103°54'0 0.0
2018-Apr-14 20:28N 01°14' E 103°54'0 0.0
2018-Apr-14 19:58N 01°14' E 103°54'0 0.0
2018-Apr-14 19:28N 01°14' E 103°54'0 0.0
2018-Apr-14 18:55N 01°14' E 103°54'0 0.0
2018-Apr-14 18:28N 01°14' E 103°54'0 0.1
2018-Apr-14 17:58N 01°14' E 103°54'0 0.1
2018-Apr-14 17:28N 01°14' E 103°54'0 0.2
2018-Apr-14 16:22N 01°14' E 103°54'0 0.0
2018-Apr-14 15:58N 01°14' E 103°54'0 0.0
2018-Apr-14 15:22N 01°14' E 103°54'0 0.1
2018-Apr-14 14:58N 01°14' E 103°54'0 0.1
2018-Apr-14 14:28N 01°14' E 103°54'0 0.0
2018-Apr-14 13:55N 01°14' E 103°54'0 0.1
2018-Apr-14 13:04N 01°14' E 103°54'0 0.6
2018-Apr-14 12:58N 01°14' E 103°54'0 0.1
2018-Apr-14 12:28N 01°14' E 103°54'0 0.3
2018-Apr-14 11:46N 01°15' E 103°54'0 0.2
2018-Apr-14 11:28N 01°15' E 103°54'0 0.0
2018-Apr-14 10:58N 01°14' E 103°54'0 0.0
2018-Apr-14 10:28N 01°14' E 103°54'0 0.0
2018-Apr-14 09:55N 01°14' E 103°54'0 0.0
2018-Apr-14 09:28N 01°15' E 103°54'0 0.0
2018-Apr-14 08:13N 01°15' E 103°54'0 0.0
2018-Apr-14 07:43N 01°15' E 103°54'0 0.0
2018-Apr-14 07:28N 01°15' E 103°54'0 0.0
2018-Apr-14 06:58N 01°15' E 103°54'0 0.0
2018-Apr-14 06:16N 01°15' E 103°54'0 0.0
2018-Apr-14 05:55N 01°15' E 103°54'0 0.0
2018-Apr-14 05:25N 01°15' E 103°54'0 0.0
2018-Apr-14 04:58N 01°15' E 103°54'0 0.3
2018-Apr-14 03:58N 01°14' E 103°54'0 0.1
2018-Apr-14 03:28N 01°14' E 103°54'0 0.0
2018-Apr-14 02:58N 01°14' E 103°54'0 0.0
2018-Apr-14 02:01N 01°14' E 103°54'0 0.0
2018-Apr-14 01:55N 01°14' E 103°54'0 0.1
2018-Apr-14 01:28N 01°14' E 103°54'0 0.1
2018-Apr-14 00:58N 01°14' E 103°54'0 0.0
2018-Apr-14 00:16N 01°14' E 103°54'0 0.2
2018-Apr-13 23:55N 01°14' E 103°54'0 0.0
2018-Apr-13 23:25N 01°14' E 103°54'0 0.0
2018-Apr-13 22:55N 01°14' E 103°54'0 0.0
2018-Apr-13 22:22N 01°14' E 103°54'0 0.0
2018-Apr-13 21:40N 01°14' E 103°54'0 0.1
2018-Apr-13 21:22N 01°14' E 103°54'0 0.0
2018-Apr-13 20:58N 01°14' E 103°54'0 0.0
2018-Apr-13 20:28N 01°14' E 103°54'0 0.0
2018-Apr-13 19:55N 01°14' E 103°54'0 0.0
2018-Apr-13 19:25N 01°14' E 103°54'0 0.0
2018-Apr-13 18:58N 01°14' E 103°54'0 0.0
2018-Apr-13 18:22N 01°14' E 103°54'0 0.0
2018-Apr-13 17:58N 01°14' E 103°54'0 0.0
2018-Apr-13 17:28N 01°14' E 103°54'0 0.0
2018-Apr-13 16:58N 01°14' E 103°54'0 0.1
2018-Apr-13 16:28N 01°14' E 103°54'0 0.0
2018-Apr-13 15:55N 01°14' E 103°54'0 0.0
2018-Apr-13 15:25N 01°14' E 103°54'0 0.1
2018-Apr-13 14:58N 01°14' E 103°54'0 0.0
2018-Apr-13 14:19N 01°14' E 103°54'0 0.0
2018-Apr-13 13:55N 01°14' E 103°54'0 0.0
2018-Apr-13 13:28N 01°14' E 103°54'0 0.0
2018-Apr-13 12:55N 01°14' E 103°54'0 0.0
2018-Apr-13 12:28N 01°14' E 103°54'0 0.2
2018-Apr-13 12:00N 01°14' E 103°54'1 1.3
2018-Apr-13 11:30N 01°14' E 103°54'3 4.2
2018-Apr-13 10:52N 01°15' E 103°57'1 3.8
2018-Apr-13 10:29N 01°14' E 103°57'4 7.2
2018-Apr-13 09:58N 01°12' E 103°53'3 7.3
2018-Apr-13 09:30N 01°11' E 103°50'4 7.8
2018-Apr-13 08:59N 01°09' E 103°47'510.3
2018-Apr-13 08:30N 01°06' E 103°43'611.5
2018-Apr-13 08:01N 01°04' E 103°38'611.5
2018-Apr-13 07:30N 01°06' E 103°33'911.9
2018-Apr-13 06:43N 01°11' E 103°25'  

Dump ship's entire track history